Baris Erkin

Olheiro - Trabzonspor
23 Jan 2028
Domingo
Processo

Personalidade

Adaptabilidade (2) Ambição (18) Controvérsia (5) Lealdade (18) Pressão (1) Profissionalismo (19) Espírito Esportivo (4) Temperamento (9)

Perfil

Estilo de Treinamento Democrático
Licença Continental Pro
Determinação 15
Gestão de Pessoas 5
Motivação 9
Disciplina 14
Satisfação no Trabalho
100%
Fadiga
0%
Função Olheiro
Salário 54.4K p/s
Contrato 14.03.2028

Desempenho

Comportamento Bom
Eficácia do Treinamento
55%
Desenvolvimento do Jogador
40%
Prevenção de Lesões
55%
Implementação Tática
70%

Eventos Recentes

Negociação de contrato iniciada agora
Participando de desenvolvimento profissional agora
Avaliou um jogador agora
Apresentou um dossiê à direção agora
Negociação de contrato iniciada agora
Participando de desenvolvimento profissional agora
Negociação de contrato iniciada agora
Participando de desenvolvimento profissional agora

Monitorando agora

54
Jogador Clube Status Habilidade Confiança Observado Última observação Último voto
Talles Magno New York City Ativo 143 / 125 40% 1 18.01.2028 -
Pau Víctor Braga Ativo 146 / 143 40% 1 18.01.2028 -
Ayden Heaven Portsmouth Ativo 145 / 155 40% 4 10.12.2027 -
Josh Nichols Oldham Athletic Ativo 121 / 129 40% 4 10.12.2027 -
Christos Mouzakitis Hull City Ativo 136 / 140 40% 1 10.12.2027 -
Trey Nyoni Rotherham United Ativo 139 / 143 40% 4 09.12.2027 -
Agustín De la Cuesta Racing Ativo 108 / 112 40% 2 09.12.2027 -
Lucas Høgsberg RC Strasbourg Ativo 143 / 143 40% 2 09.12.2027 -
Victor Hernandez Santa Fe Ativo 129 / 129 40% 4 06.12.2027 -
Matias Siltanen Malmo FF Ativo 113 / 137 40% 2 06.12.2027 -
Kauã Moraes Flamengo Ativo 130 / 137 40% 3 04.12.2027 -
Felipe Faúndez O'Higgins Ativo 108 / 102 40% 2 04.12.2027 -
Edvard Pettersen Sandefjord Ativo 120 / 109 40% 3 03.12.2027 -
Josh King Newcastle United Ativo 142 / 146 40% 5 03.12.2027 -
Vinícius Lira São Paulo Ativo 123 / 126 40% 4 03.12.2027 -
Tyler Fletcher Rotherham United Ativo 112 / 123 40% 1 26.11.2027 -
Honest Ahanor Atalanta Ativo 136 / 138 40% 3 25.11.2027 -
Jorge Moreno Athletic Bilbao Ativo 128 / 128 40% 1 25.11.2027 -
Pedro Soma San Diego Football Club Ativo 103 / 115 40% 2 23.11.2027 -
Chris Rigg Sunderland Ativo 133 / 144 40% 2 20.11.2027 -
Sebastián Ramírez Aguilas Doradas Ativo 99 / 111 40% 1 20.11.2027 -
Azizbek To'lqinbekov Bunyodkor Ativo 90 / 107 40% 2 19.11.2027 -
Hugo Rojas Instituto Ativo 97 / 105 40% 1 19.11.2027 -
Giovanni Leoni Lincoln City Ativo 132 / 147 40% 2 17.11.2027 -
Ollie Scarles West Ham United Ativo 140 / 137 40% 4 16.11.2027 -
Josh Acheampong Everton Ativo 138 / 144 40% 1 16.11.2027 -
Kenan Busuladžić Malmo FF Ativo 127 / 116 40% 1 15.11.2027 -
Adrian Skogmar Malmo FF Ativo 102 / 116 40% 3 13.11.2027 -
Nahuel Leivas Montevideo City Torque Ativo 112 / 103 40% 2 12.11.2027 -
Mohamed Moussa Koïta Mathare United Ativo 96 / 101 40% 1 12.11.2027 -
Julián Bazán New York Red Bulls Ativo 100 / 119 40% 1 10.11.2027 -
Oscar Steinke Brånby Hammarby Ativo 110 / 105 40% 2 06.11.2027 -
Caleb Yirenkyi Coventry City Ativo 135 / 146 40% 1 03.11.2027 -
Jonathan Klinsmann Cesena Ativo 133 / 131 40% 1 09.08.2027 -
Alexander Nübel Besiktas Ativo 155 / 148 40% 1 09.08.2027 -
James Trafford Leeds United Ativo 152 / 153 40% 1 03.08.2027 -
Viktor Johansson Stoke City Ativo 137 / 135 40% 1 03.08.2027 -
André-Franck Zambo Anguissa Napoli Ativo 170 / 160 40% 3 27.07.2027 -
Alfie Doughty Millwall Ativo 132 / 133 40% 2 27.07.2027 -
Juanlu Bournemouth Ativo 153 / 150 40% 1 27.07.2027 -
Christopher Opéri Basaksehir Ativo 140 / 133 40% 2 19.07.2027 -
Hidemasa Morita Hull City Ativo 140 / 149 40% 1 19.07.2027 -
Nordi Mukiele Sunderland Ativo 143 / 149 40% 2 12.07.2027 -
Welington Southampton Ativo 136 / 129 40% 1 05.07.2027 -
Adrien Truffert Bournemouth Ativo 145 / 148 40% 1 28.06.2027 -
Issa Kaboré Wrexham Ativo 133 / 135 40% 1 28.06.2027 -
Matthew Targett Hull City Ativo 140 / 126 40% 1 23.06.2027 -
Leon Goretzka Aston Villa Ativo 152 / 160 40% 1 15.06.2027 -
Azor Matusiwa Ipswich Town Ativo 141 / 142 40% 1 15.06.2027 -
Shea Charles Southampton Ativo 136 / 145 40% 1 15.06.2027 -
Patrick Cutrone Monza Ativo 138 / 132 40% 1 31.05.2027 -
Wilson Isidor Sunderland Ativo 143 / 136 40% 1 31.05.2027 -
Yassine Bounou Al-Hilal Ativo 157 / 153 40% 1 03.08.2026 -
Édouard Mendy Al-Ahli Ativo 148 / 136 40% 1 03.08.2026 -